Terminal Aerodrome Forecast
Issued by NWS

Home | Current Version | Previous Version | Text Only | Print | Product List | Glossary On
Versions: 1 2 3 4 5 6 7 8 9 10 11 12 13 14 15 16 17 18 19 20
000
FTUS42 KMLB 301500 AAB
TAFSFB
TAF AMD
KSFB 301500Z 3015/0112 14012G19KT P6SM FEW035 BKN150 BKN250
     FM302000 12017G25KT P6SM SCT060 BKN250
     FM010100 13009KT P6SM FEW060 SCT250=

USA.gov is the U.S. government's official web portal to all federal, state and local government web resources and services.